Time;durP1;ratioP1;P1;durP2;ratioP2;P2;SDS_P1;SDS_P2;PMS_P1;PMS_P2;Temp;Humidity;BMP_temperature;BMP_pressure;BME280_temperature;BME280_humidity;BME280_pressure;Samples;Min_cycle;Max_cycle;Signal;HPM_P1;HPM_P2
2022/11/28 00:02:20;;;;;;;1.63;1.20;;;17.60;79.10;;;;;;6183547;23;46703;-72
2022/11/28 00:04:52;;;;;;;2.25;1.40;;;17.50;79.00;;;;;;6183454;23;45284;-72
2022/11/28 00:07:18;;;;;;;3.75;1.50;;;17.60;78.70;;;;;;6184424;23;45436;-72
2022/11/28 00:09:45;;;;;;;2.53;1.30;;;17.60;78.90;;;;;;6184448;22;45483;-72
2022/11/28 00:12:12;;;;;;;2.00;1.27;;;17.50;79.10;;;;;;6184504;23;46277;-72
2022/11/28 00:14:39;;;;;;;2.03;1.38;;;17.50;79.10;;;;;;6183983;23;45209;-72
2022/11/28 00:17:06;;;;;;;2.13;1.48;;;17.60;78.90;;;;;;6184878;23;45261;-73
2022/11/28 00:19:33;;;;;;;3.13;1.30;;;17.50;79.10;;;;;;6184580;23;45253;-72
2022/11/28 00:22:01;;;;;;;2.25;1.42;;;17.60;78.90;;;;;;6183869;23;46428;-72
2022/11/28 00:24:28;;;;;;;2.28;1.50;;;17.60;77.70;;;;;;6184322;23;45146;-72
2022/11/28 00:26:55;;;;;;;2.08;1.30;;;17.50;78.20;;;;;;6184338;23;45226;-72
2022/11/28 00:29:22;;;;;;;1.55;1.20;;;17.60;78.50;;;;;;6184472;23;45403;-72
2022/11/28 00:31:48;;;;;;;2.15;1.52;;;17.50;77.70;;;;;;6183944;23;46365;-73
2022/11/28 00:34:15;;;;;;;1.85;1.20;;;17.50;78.20;;;;;;6183669;23;45289;-73
2022/11/28 00:36:44;;;;;;;2.53;1.52;;;17.50;78.20;;;;;;6184006;23;45214;-72
2022/11/28 00:39:12;;;;;;;2.95;1.42;;;17.50;78.00;;;;;;6183914;23;45297;-73
2022/11/28 00:41:39;;;;;;;2.25;1.30;;;17.50;78.10;;;;;;6184036;23;47971;-72
2022/11/28 00:44:06;;;;;;;1.65;1.35;;;17.50;78.00;;;;;;6184203;23;45653;-72
2022/11/28 00:46:33;;;;;;;1.55;1.10;;;17.50;77.80;;;;;;6184654;23;45169;-73
2022/11/28 00:49:03;;;;;;;2.28;1.40;;;17.50;77.80;;;;;;6183815;23;45178;-72
2022/11/28 00:51:32;;;;;;;2.50;1.40;;;17.50;77.30;;;;;;6184139;23;46565;-73
2022/11/28 00:54:01;;;;;;;2.47;1.50;;;17.50;76.90;;;;;;6184149;23;45300;-73
2022/11/28 00:56:31;;;;;;;2.33;1.30;;;17.50;78.10;;;;;;6184568;23;45290;-73
2022/11/28 00:58:58;;;;;;;2.45;1.30;;;17.50;78.20;;;;;;6184604;23;45262;-72
2022/11/28 01:01:27;;;;;;;2.20;1.40;;;17.50;78.70;;;;;;6183702;23;48526;-73
2022/11/28 01:03:55;;;;;;;2.13;1.33;;;17.50;78.50;;;;;;6183599;23;45288;-72
2022/11/28 01:06:25;;;;;;;1.73;1.30;;;17.60;78.40;;;;;;6183779;23;45225;-73
2022/11/28 01:08:53;;;;;;;2.17;1.23;;;17.50;78.70;;;;;;6184588;23;45247;-72
2022/11/28 01:11:21;;;;;;;1.92;1.40;;;17.50;78.50;;;;;;6183384;22;47997;-72
2022/11/28 01:13:49;;;;;;;1.88;1.15;;;17.50;78.50;;;;;;6183695;23;45268;-72
2022/11/28 01:16:16;;;;;;;1.73;1.20;;;17.60;78.40;;;;;;6184236;23;45364;-70
2022/11/28 01:18:43;;;;;;;1.95;1.30;;;17.50;78.50;;;;;;6184355;23;45523;-71
2022/11/28 01:21:10;;;;;;;2.10;1.52;;;17.50;78.10;;;;;;6184406;23;45758;-70
2022/11/28 01:23:39;;;;;;;1.27;1.15;;;17.60;78.30;;;;;;6183437;23;45304;-71
2022/11/28 01:26:09;;;;;;;1.38;1.20;;;17.60;78.10;;;;;;6183787;23;45304;-71
2022/11/28 01:28:35;;;;;;;1.70;1.35;;;17.60;78.10;;;;;;6184208;23;45592;-71
2022/11/28 01:31:05;;;;;;;1.38;1.15;;;17.60;77.80;;;;;;6184053;23;47747;-71
2022/11/28 01:33:32;;;;;;;2.22;1.45;;;17.50;77.60;;;;;;6183975;23;45357;-70
2022/11/28 01:36:00;;;;;;;3.05;1.60;;;17.50;77.50;;;;;;6183990;23;45388;-70
2022/11/28 01:38:27;;;;;;;2.10;1.52;;;17.50;77.00;;;;;;6184577;23;45488;-71
2022/11/28 01:40:55;;;;;;;1.65;1.20;;;17.50;77.20;;;;;;6183481;23;46378;-70
2022/11/28 01:43:23;;;;;;;2.33;1.52;;;17.50;77.40;;;;;;6183913;23;45269;-70
2022/11/28 01:45:50;;;;;;;2.22;1.33;;;17.50;77.30;;;;;;6184396;23;45352;-70
2022/11/28 01:48:26;;;;;;;2.60;1.10;;;17.50;76.90;;;;;;6183971;23;45541;-70
2022/11/28 01:50:58;;;;;;;2.58;1.50;;;17.50;76.30;;;;;;6184554;23;45452;-71
2022/11/28 01:53:26;;;;;;;1.83;1.30;;;17.50;76.80;;;;;;6184480;23;45439;-71
2022/11/28 01:55:58;;;;;;;1.42;1.10;;;17.50;77.50;;;;;;6185563;23;45143;-70
2022/11/28 01:58:25;;;;;;;1.60;1.10;;;17.50;78.00;;;;;;6185433;23;45369;-71
2022/11/28 02:00:53;;;;;;;1.92;1.50;;;17.50;78.20;;;;;;6185086;23;45498;-70
2022/11/28 02:03:25;;;;;;;1.50;1.30;;;17.50;78.10;;;;;;6184800;23;45161;-71
2022/11/28 02:05:53;;;;;;;2.55;1.55;;;17.50;78.20;;;;;;6185260;23;45273;-70
2022/11/28 02:08:20;;;;;;;2.38;1.42;;;17.50;77.30;;;;;;6185608;23;45317;-70
2022/11/28 02:11:04;;;;;;;2.58;1.45;;;17.50;78.20;;;;;;6184621;23;47715;-71
2022/11/28 02:13:40;;;;;;;2.20;1.30;;;17.50;78.30;;;;;;6184949;23;45157;-71
2022/11/28 02:16:23;;;;;;;1.92;1.17;;;17.50;77.80;;;;;;6185319;23;45388;-71
2022/11/28 02:19:01;;;;;;;1.80;1.42;;;17.60;77.00;;;;;;6185471;23;45161;-70
2022/11/28 02:21:41;;;;;;;1.85;1.30;;;17.60;78.60;;;;;;6184724;23;46402;-71
2022/11/28 02:24:31;;;;;;;1.40;1.13;;;17.60;77.70;;;;;;6185360;23;45232;-70
2022/11/28 02:27:32;;;;;;;2.00;1.35;;;17.60;77.70;;;;;;6185396;23;45294;-71
2022/11/28 02:30:12;;;;;;;2.00;1.58;;;17.50;77.50;;;;;;6120554;23;45441;-71
2022/11/28 02:33:07;;;;;;;1.92;1.20;;;17.50;77.40;;;;;;6185028;23;48260;-72
2022/11/28 02:35:41;;;;;;;2.70;1.20;;;17.60;77.20;;;;;;6185335;23;45360;-70
2022/11/28 02:38:18;;;;;;;2.78;1.60;;;17.50;77.00;;;;;;6185517;23;45447;-71
2022/11/28 02:40:56;;;;;;;1.40;1.20;;;17.50;77.40;;;;;;6185232;23;45293;-71
2022/11/28 02:43:32;;;;;;;2.13;1.25;;;17.50;77.10;;;;;;6185420;23;46283;-71
2022/11/28 02:46:06;;;;;;;1.73;1.10;;;17.50;76.60;;;;;;6185268;23;45249;-71
2022/11/28 02:48:41;;;;;;;1.88;1.40;;;17.50;76.90;;;;;;6185819;23;45236;-71
2022/11/28 02:51:12;;;;;;;2.60;1.30;;;17.50;76.40;;;;;;6185151;23;45558;-70
2022/11/28 02:53:42;;;;;;;2.58;1.42;;;17.50;76.70;;;;;;6185479;23;45429;-71
2022/11/28 02:56:10;;;;;;;1.73;1.20;;;17.50;76.30;;;;;;6185544;23;45575;-71
2022/11/28 02:58:37;;;;;;;1.88;1.30;;;17.50;76.80;;;;;;6185543;23;45282;-70
2022/11/28 03:01:06;;;;;;;1.75;1.40;;;17.50;77.30;;;;;;6185480;23;45269;-70
2022/11/28 03:03:53;;;;;;;1.38;1.15;;;17.50;77.30;;;;;;6183945;23;47010;-71
2022/11/28 03:06:31;;;;;;;3.35;1.40;;;17.50;77.20;;;;;;6185428;23;45150;-70
2022/11/28 03:09:09;;;;;;;1.42;1.15;;;17.50;77.90;;;;;;6185541;23;45276;-71
2022/11/28 03:11:48;;;;;;;1.42;1.10;;;17.50;77.60;;;;;;6185410;23;45440;-70
2022/11/28 03:14:24;;;;;;;1.90;1.35;;;17.50;77.50;;;;;;6185140;23;46385;-71
2022/11/28 03:17:02;;;;;;;1.55;1.20;;;17.60;78.20;;;;;;6185132;23;45300;-71
2022/11/28 03:19:35;;;;;;;2.35;1.25;;;17.50;77.70;;;;;;6185476;23;45362;-70
2022/11/28 03:22:10;;;;;;;1.45;1.25;;;17.50;77.60;;;;;;6185351;23;45299;-71
2022/11/28 03:24:42;;;;;;;2.22;1.33;;;17.50;77.10;;;;;;6184959;23;46287;-70
2022/11/28 03:27:17;;;;;;;1.70;1.13;;;17.50;77.30;;;;;;6184750;23;45220;-71
2022/11/28 03:29:49;;;;;;;2.70;1.52;;;17.50;77.10;;;;;;6185646;23;45224;-70
2022/11/28 03:32:18;;;;;;;1.63;1.10;;;17.60;77.00;;;;;;6184943;23;45295;-70
2022/11/28 03:34:51;;;;;;;2.00;1.35;;;17.50;77.00;;;;;;6184839;23;45288;-71
2022/11/28 03:37:21;;;;;;;1.73;1.25;;;17.50;76.60;;;;;;6183864;23;45402;-71
2022/11/28 03:39:54;;;;;;;1.92;1.30;;;17.50;76.50;;;;;;6184940;23;45312;-70
2022/11/28 03:42:23;;;;;;;1.50;1.05;;;17.50;76.60;;;;;;6185063;23;45413;-71
2022/11/28 03:44:56;;;;;;;1.88;1.33;;;17.50;76.20;;;;;;6184026;23;45379;-70
2022/11/28 03:47:27;;;;;;;3.58;1.50;;;17.50;76.90;;;;;;6184962;23;45184;-70
2022/11/28 03:50:00;;;;;;;1.85;1.45;;;17.50;76.10;;;;;;6185012;23;45356;-71
2022/11/28 03:52:30;;;;;;;2.10;1.48;;;17.50;76.50;;;;;;6185612;23;45132;-70
2022/11/28 03:55:01;;;;;;;2.15;1.40;;;17.50;76.50;;;;;;6184555;23;45241;-71
2022/11/28 03:57:34;;;;;;;2.90;1.40;;;17.50;76.10;;;;;;6184876;23;45272;-70
2022/11/28 04:00:04;;;;;;;2.92;1.20;;;17.50;76.90;;;;;;6185710;23;45404;-70
2022/11/28 04:02:36;;;;;;;1.90;1.20;;;17.50;77.30;;;;;;6184908;23;45338;-70
2022/11/28 04:05:14;;;;;;;2.58;1.50;;;17.50;77.20;;;;;;6184884;23;45531;-71
2022/11/28 04:07:46;;;;;;;2.13;1.27;;;17.50;77.20;;;;;;6184660;23;45295;-70
2022/11/28 04:10:20;;;;;;;2.17;1.45;;;17.50;77.50;;;;;;6184995;23;45261;-70
2022/11/28 04:12:54;;;;;;;1.40;1.30;;;17.50;77.20;;;;;;6184807;23;45405;-70
2022/11/28 04:15:30;;;;;;;2.72;1.27;;;17.50;77.30;;;;;;6184252;23;45203;-71
2022/11/28 04:18:02;;;;;;;1.85;1.38;;;17.50;77.50;;;;;;6184643;23;45245;-70
2022/11/28 04:20:36;;;;;;;4.72;1.40;;;17.60;77.40;;;;;;6184967;23;45368;-71
2022/11/28 04:23:08;;;;;;;2.33;1.52;;;17.50;77.30;;;;;;6184690;23;45417;-71
2022/11/28 04:25:38;;;;;;;1.77;1.02;;;17.60;77.40;;;;;;6184398;23;45270;-70
2022/11/28 04:28:10;;;;;;;2.47;1.60;;;17.50;77.10;;;;;;6185177;23;45284;-70
2022/11/28 04:30:38;;;;;;;1.77;1.40;;;17.50;77.20;;;;;;6184585;23;45370;-70
2022/11/28 04:33:09;;;;;;;2.65;1.77;;;17.50;76.60;;;;;;6184931;23;45250;-70
2022/11/28 04:35:41;;;;;;;2.60;1.40;;;17.50;76.60;;;;;;6184760;23;46282;-70
2022/11/28 04:38:10;;;;;;;2.20;1.45;;;17.60;76.90;;;;;;6184598;23;45275;-70
2022/11/28 04:40:43;;;;;;;1.80;1.30;;;17.50;76.60;;;;;;6184798;23;45163;-70
2022/11/28 04:43:17;;;;;;;2.08;1.30;;;17.50;76.40;;;;;;6184652;23;45211;-70
2022/11/28 04:45:48;;;;;;;1.65;1.40;;;17.50;76.10;;;;;;6184577;23;47242;-71
2022/11/28 04:48:16;;;;;;;2.40;1.60;;;17.50;76.10;;;;;;6184295;23;45372;-71
2022/11/28 04:50:49;;;;;;;2.33;1.40;;;17.50;76.10;;;;;;6184502;23;45279;-71
2022/11/28 04:53:20;;;;;;;1.90;1.55;;;17.50;76.10;;;;;;6184182;23;45269;-71
2022/11/28 04:55:52;;;;;;;2.97;1.33;;;17.50;76.10;;;;;;6184170;23;45410;-71
2022/11/28 04:58:23;;;;;;;1.70;1.33;;;17.50;76.10;;;;;;6184371;23;45388;-71
2022/11/28 05:00:57;;;;;;;2.33;1.42;;;17.50;76.10;;;;;;6183952;23;45284;-72
2022/11/28 05:03:27;;;;;;;1.73;1.17;;;17.50;76.70;;;;;;6184879;23;45204;-71
2022/11/28 05:05:56;;;;;;;1.60;1.40;;;17.50;76.80;;;;;;6183962;23;46274;-71
2022/11/28 05:08:22;;;;;;;2.58;1.42;;;17.50;76.80;;;;;;6184228;23;45237;-70
2022/11/28 05:10:49;;;;;;;2.25;1.38;;;17.50;76.80;;;;;;6184247;23;45213;-70
2022/11/28 05:13:16;;;;;;;1.98;1.40;;;17.50;76.10;;;;;;6183677;23;45379;-70
2022/11/28 05:15:43;;;;;;;3.13;1.60;;;17.50;76.40;;;;;;6183641;23;46583;-70
2022/11/28 05:18:10;;;;;;;1.75;1.40;;;17.50;76.10;;;;;;6183722;23;45294;-71
2022/11/28 05:20:38;;;;;;;2.67;1.45;;;17.50;76.10;;;;;;6183919;23;45201;-72
2022/11/28 05:23:07;;;;;;;2.40;1.77;;;17.50;76.10;;;;;;6183124;23;45213;-72
2022/11/28 05:25:33;;;;;;;1.77;1.40;;;17.40;75.60;;;;;;6183964;23;48407;-72
2022/11/28 05:28:00;;;;;;;1.80;1.45;;;17.50;76.10;;;;;;6185398;23;45220;-72
2022/11/28 05:30:27;;;;;;;2.15;1.48;;;17.40;75.80;;;;;;6185055;23;45241;-72
2022/11/28 05:32:55;;;;;;;2.63;1.85;;;17.50;75.70;;;;;;6186028;23;45482;-72
2022/11/28 05:35:22;;;;;;;1.98;1.45;;;17.50;75.70;;;;;;6184802;23;47237;-73
2022/11/28 05:37:49;;;;;;;2.88;1.55;;;17.50;75.90;;;;;;6185392;23;45266;-72
2022/11/28 05:40:17;;;;;;;2.20;1.63;;;17.50;75.60;;;;;;6185287;23;45480;-72
2022/11/28 05:42:44;;;;;;;2.47;1.70;;;17.50;75.70;;;;;;6185363;23;45667;-73
2022/11/28 05:45:11;;;;;;;1.75;1.40;;;17.50;76.10;;;;;;6184951;23;46318;-72
2022/11/28 05:47:50;;;;;;;1.92;1.30;;;17.50;75.70;;;;;;6185377;23;45261;-74
2022/11/28 05:50:17;;;;;;;2.40;1.52;;;17.50;76.10;;;;;;6186113;23;45232;-73
2022/11/28 05:52:43;;;;;;;2.17;1.58;;;17.50;76.10;;;;;;6185336;23;45446;-73
2022/11/28 05:55:10;;;;;;;3.30;1.77;;;17.50;76.10;;;;;;6185411;23;47963;-72
2022/11/28 05:57:38;;;;;;;1.65;1.05;;;17.50;76.10;;;;;;6185108;23;45299;-72
2022/11/28 06:00:06;;;;;;;1.38;1.20;;;17.50;76.10;;;;;;6185430;23;45337;-72
2022/11/28 06:02:35;;;;;;;2.78;1.50;;;17.50;76.10;;;;;;6185826;23;45297;-72
2022/11/28 06:05:02;;;;;;;3.13;1.65;;;17.50;76.10;;;;;;6184980;23;47559;-72
2022/11/28 06:07:29;;;;;;;1.48;1.27;;;17.50;76.20;;;;;;6185796;23;45228;-72
2022/11/28 06:09:56;;;;;;;2.10;1.33;;;17.50;76.10;;;;;;6184612;23;45308;-72
2022/11/28 06:12:22;;;;;;;2.33;1.48;;;17.60;76.60;;;;;;6185391;23;45220;-72
2022/11/28 06:14:58;;;;;;;2.05;1.38;;;17.60;76.30;;;;;;6184790;23;48127;-72
2022/11/28 06:17:24;;;;;;;2.50;1.45;;;17.50;76.60;;;;;;6185042;23;45712;-71
2022/11/28 06:19:51;;;;;;;2.25;1.48;;;17.60;76.70;;;;;;6184385;23;45328;-72
2022/11/28 06:22:18;;;;;;;2.42;1.70;;;17.50;76.60;;;;;;6183694;23;45501;-71
2022/11/28 06:24:45;;;;;;;2.60;1.40;;;17.50;76.10;;;;;;6184584;23;47989;-73
2022/11/28 06:27:13;;;;;;;2.25;1.60;;;17.50;76.10;;;;;;6184449;23;45211;-72
2022/11/28 06:29:39;;;;;;;2.58;1.73;;;17.50;76.10;;;;;;6184492;23;45288;-72
2022/11/28 06:32:07;;;;;;;2.40;1.58;;;17.50;75.50;;;;;;6185052;23;45692;-72
2022/11/28 06:34:34;;;;;;;2.22;1.90;;;17.50;75.30;;;;;;6184555;23;47496;-74
2022/11/28 06:37:01;;;;;;;2.53;1.80;;;17.50;74.40;;;;;;6185123;23;45157;-73
2022/11/28 06:39:28;;;;;;;2.43;1.63;;;17.50;73.90;;;;;;6184869;23;45471;-73
2022/11/28 06:41:54;;;;;;;2.33;1.87;;;17.50;74.30;;;;;;6183697;23;45422;-73
2022/11/28 06:44:21;;;;;;;2.80;1.90;;;17.40;74.50;;;;;;6184149;23;48402;-72
2022/11/28 06:46:48;;;;;;;2.78;1.77;;;17.50;73.90;;;;;;6184065;23;45434;-72
2022/11/28 06:49:16;;;;;;;2.17;1.80;;;17.40;74.20;;;;;;6158830;23;45485;-73
2022/11/28 06:51:44;;;;;;;2.75;1.90;;;17.40;73.60;;;;;;6183121;23;45129;-73
2022/11/28 06:54:11;;;;;;;2.85;2.00;;;17.40;74.70;;;;;;6184474;23;45440;-72
2022/11/28 06:56:40;;;;;;;4.05;2.13;;;17.40;74.20;;;;;;6184507;23;45233;-72
2022/11/28 06:59:07;;;;;;;3.08;1.77;;;17.40;73.70;;;;;;6185266;23;45336;-72
2022/11/28 07:01:34;;;;;;;3.30;1.80;;;17.40;73.10;;;;;;6185795;23;45284;-73
2022/11/28 07:04:11;;;;;;;2.67;1.70;;;17.40;73.30;;;;;;6184216;23;45485;-72
2022/11/28 07:06:54;;;;;;;2.08;1.77;;;17.40;73.40;;;;;;6185153;23;45322;-78
2022/11/28 07:09:24;;;;;;;12.48;2.30;;;17.40;74.30;;;;;;6184841;22;45292;-76
2022/11/28 07:11:54;;;;;;;7.35;2.15;;;17.50;78.30;;;;;;6187877;23;45206;-76
2022/11/28 07:15:08;;;;;;;2.83;1.48;;;17.90;77.50;;;;;;6186864;23;48306;-77
2022/11/28 07:32:33;;;;;;;2.97;1.80;;;18.30;75.90;;;;;;6096145;23;45292;-77
2022/11/28 09:16:23;;;;;;;14.48;1.92;;;18.10;78.20;;;;;;5922988;24;45414;-77
2022/11/28 09:18:56;;;;;;;16.40;2.10;;;17.70;76.60;;;;;;6010989;23;45330;-81
2022/11/28 09:27:52;;;;;;;8.98;2.20;;;18.70;77.10;;;;;;6215470;22;45610;-72
2022/11/28 09:30:21;;;;;;;15.07;2.00;;;17.80;76.70;;;;;;6216830;22;45329;-73
2022/11/28 09:33:20;;;;;;;14.05;2.45;;;17.80;76.30;;;;;;6218796;22;45112;-74
2022/11/28 09:35:48;;;;;;;7.47;2.30;;;17.80;76.10;;;;;;6094736;23;45505;-71
2022/11/28 09:48:37;;;;;;;15.43;2.60;;;18.10;76.60;;;;;;5980700;23;45324;-76
2022/11/28 09:51:22;;;;;;;9.27;2.60;;;18.00;76.90;;;;;;6060735;23;47324;-73
2022/11/28 09:54:00;;;;;;;7.63;2.20;;;17.90;76.40;;;;;;6162075;22;45248;-73
2022/11/28 09:56:27;;;;;;;11.65;2.00;;;17.90;76.40;;;;;;6215788;22;45079;-74
2022/11/28 10:02:26;;;;;;;7.90;2.30;;;17.80;76.30;;;;;;6215267;22;45744;-73
2022/11/28 10:05:04;;;;;;;5.67;2.10;;;17.80;76.30;;;;;;6215133;22;45249;-73
2022/11/28 10:07:43;;;;;;;5.73;2.30;;;17.70;76.30;;;;;;6215666;22;45200;-73
2022/11/28 10:10:18;;;;;;;6.35;1.75;;;17.70;76.20;;;;;;6213923;22;45319;-73
2022/11/28 10:12:55;;;;;;;5.95;2.25;;;17.70;76.00;;;;;;6185498;23;45394;-74
2022/11/28 10:15:33;;;;;;;7.40;1.98;;;17.70;75.80;;;;;;6186898;23;45204;-73
2022/11/28 10:18:14;;;;;;;5.13;1.85;;;17.70;76.10;;;;;;6187778;23;45099;-73
2022/11/28 10:20:44;;;;;;;5.50;2.25;;;17.70;75.40;;;;;;6187796;23;45139;-73
2022/11/28 10:23:16;;;;;;;8.45;3.13;;;17.60;75.60;;;;;;6187437;23;46582;-73
2022/11/28 10:25:48;;;;;;;5.18;1.85;;;17.70;75.70;;;;;;6187448;23;45238;-74
2022/11/28 10:28:20;;;;;;;7.50;1.90;;;17.60;76.00;;;;;;6187618;23;45186;-74
2022/11/28 10:30:53;;;;;;;4.47;1.67;;;17.70;76.20;;;;;;6187748;23;45166;-73
2022/11/28 10:33:28;;;;;;;5.15;2.30;;;17.60;76.10;;;;;;6187183;23;45575;-73
2022/11/28 10:35:58;;;;;;;6.50;1.98;;;17.60;76.10;;;;;;6187432;23;45105;-73
2022/11/28 10:38:27;;;;;;;3.25;2.05;;;17.60;76.50;;;;;;6187429;23;45213;-73
2022/11/28 10:41:00;;;;;;;2.97;1.80;;;17.60;76.20;;;;;;6187446;23;45490;-73
2022/11/28 10:46:54;;;;;;;4.45;2.03;;;17.60;76.10;;;;;;6187574;23;45243;-74
2022/11/28 10:49:32;;;;;;;3.28;1.95;;;17.60;76.20;;;;;;6187699;23;45110;-73
2022/11/28 10:52:08;;;;;;;3.65;1.80;;;17.60;76.20;;;;;;6187412;23;45479;-73
2022/11/28 10:55:00;;;;;;;4.65;1.90;;;17.60;77.20;;;;;;6187604;23;47245;-74
2022/11/28 10:57:31;;;;;;;4.07;1.90;;;17.60;76.10;;;;;;6187625;23;45290;-73
2022/11/28 11:00:05;;;;;;;3.33;1.75;;;17.60;76.20;;;;;;6187520;23;45177;-73
2022/11/28 11:02:37;;;;;;;3.28;1.63;;;17.60;76.20;;;;;;6187336;23;45082;-73
2022/11/28 11:05:08;;;;;;;4.80;2.45;;;17.60;76.10;;;;;;6187121;23;46375;-74
2022/11/28 11:07:35;;;;;;;2.90;2.00;;;17.60;75.80;;;;;;6187824;23;45211;-73
2022/11/28 11:10:14;;;;;;;3.92;1.90;;;17.60;75.60;;;;;;6187258;23;45345;-74
2022/11/28 11:12:41;;;;;;;3.97;2.03;;;17.50;75.30;;;;;;6187494;23;45104;-74
2022/11/28 11:15:22;;;;;;;4.97;1.90;;;17.60;75.20;;;;;;6187082;23;46356;-73
2022/11/28 11:17:50;;;;;;;4.03;1.92;;;17.50;75.00;;;;;;6186978;23;45352;-73
2022/11/28 11:20:34;;;;;;;4.18;1.92;;;17.50;75.90;;;;;;6187240;23;45099;-73
2022/11/28 11:23:02;;;;;;;2.55;1.52;;;17.60;74.90;;;;;;6187261;23;45372;-73
2022/11/28 11:25:31;;;;;;;2.50;1.80;;;17.60;74.90;;;;;;6187089;23;48592;-73
2022/11/28 11:28:01;;;;;;;2.83;1.83;;;17.60;75.00;;;;;;6186954;23;45293;-73
2022/11/28 11:30:31;;;;;;;2.35;1.70;;;17.60;75.00;;;;;;6187053;23;45183;-74
2022/11/28 11:32:59;;;;;;;2.65;1.88;;;17.50;75.20;;;;;;6187013;23;45343;-73
2022/11/28 11:35:30;;;;;;;1.80;1.40;;;17.60;75.10;;;;;;6185917;23;45251;-74
2022/11/28 11:38:16;;;;;;;2.00;1.58;;;17.50;75.30;;;;;;6186455;23;45267;-73
2022/11/28 11:40:44;;;;;;;2.00;1.70;;;17.50;75.30;;;;;;6187243;23;45097;-73
2022/11/28 11:43:26;;;;;;;3.22;2.00;;;17.50;75.70;;;;;;6187200;23;45328;-73
2022/11/28 11:46:06;;;;;;;2.65;1.63;;;17.50;76.10;;;;;;6187052;23;48137;-73
2022/11/28 11:48:38;;;;;;;1.75;1.52;;;17.50;76.10;;;;;;6187097;23;46093;-74
2022/11/28 11:51:07;;;;;;;3.88;1.60;;;17.50;76.10;;;;;;6187016;23;45176;-73
2022/11/28 11:53:35;;;;;;;2.40;1.65;;;17.50;76.10;;;;;;6187450;23;45071;-73
2022/11/28 11:56:04;;;;;;;3.22;2.05;;;17.50;76.10;;;;;;6186688;23;46342;-73
2022/11/28 11:58:39;;;;;;;2.22;1.73;;;17.50;76.10;;;;;;6187132;23;45715;-74
2022/11/28 12:01:07;;;;;;;2.30;1.55;;;17.50;76.10;;;;;;6187578;23;45285;-74
2022/11/28 12:03:40;;;;;;;3.03;1.48;;;17.50;76.10;;;;;;6187509;23;45513;-74
2022/11/28 12:06:14;;;;;;;2.65;1.52;;;17.50;76.10;;;;;;6187343;23;47733;-74
2022/11/28 12:08:49;;;;;;;2.60;1.60;;;17.50;76.10;;;;;;6187284;23;45142;-73
2022/11/28 12:11:19;;;;;;;2.30;1.50;;;17.60;76.20;;;;;;6186193;22;45217;-73
2022/11/28 12:13:46;;;;;;;3.03;1.60;;;17.50;76.10;;;;;;6186809;23;45367;-73
2022/11/28 12:16:40;;;;;;;3.35;1.83;;;17.50;76.10;;;;;;6186442;23;47558;-73
2022/11/28 12:19:19;;;;;;;2.33;1.70;;;17.50;76.10;;;;;;6186580;23;45310;-74
2022/11/28 12:22:02;;;;;;;2.90;1.67;;;17.50;76.10;;;;;;6186776;23;45253;-73
2022/11/28 12:24:37;;;;;;;2.95;1.67;;;17.50;76.10;;;;;;6187165;23;45157;-73
2022/11/28 12:27:09;;;;;;;2.50;1.70;;;17.50;76.10;;;;;;6186770;23;46274;-73
2022/11/28 12:29:49;;;;;;;2.35;1.50;;;17.50;76.10;;;;;;6186824;23;45252;-73
2022/11/28 12:32:37;;;;;;;1.90;1.30;;;17.50;76.10;;;;;;6186804;23;45177;-73
2022/11/28 12:35:19;;;;;;;3.15;1.67;;;17.50;76.10;;;;;;6186687;23;45333;-73
2022/11/28 12:37:58;;;;;;;2.88;1.95;;;17.50;76.10;;;;;;6186357;23;45455;-72
2022/11/28 12:40:35;;;;;;;2.38;1.80;;;17.50;76.10;;;;;;6186679;23;45249;-73
2022/11/28 12:43:16;;;;;;;2.75;1.80;;;17.50;76.10;;;;;;6186486;23;45306;-73
2022/11/28 12:45:48;;;;;;;2.25;1.63;;;17.50;76.10;;;;;;6186500;23;45189;-73
2022/11/28 12:48:41;;;;;;;2.55;1.73;;;17.50;76.10;;;;;;6186011;23;46718;-73
2022/11/28 12:55:08;;;;;;;2.17;1.55;;;17.50;76.10;;;;;;6186925;23;45177;-73
2022/11/28 12:57:43;;;;;;;1.95;1.60;;;17.50;76.10;;;;;;6186353;23;45120;-73
2022/11/28 13:00:14;;;;;;;2.55;1.55;;;17.50;76.10;;;;;;6186148;23;45449;-73
2022/11/28 13:02:55;;;;;;;2.90;1.52;;;17.50;76.10;;;;;;6186620;23;45269;-73
2022/11/28 13:05:31;;;;;;;1.85;1.45;;;17.50;76.10;;;;;;6186695;23;45248;-73
2022/11/28 13:08:20;;;;;;;3.15;1.67;;;17.50;76.10;;;;;;6186619;23;45653;-73
2022/11/28 13:10:53;;;;;;;3.05;1.70;;;17.60;76.20;;;;;;6186198;23;46546;-73
2022/11/28 13:13:25;;;;;;;3.20;1.60;;;17.50;76.10;;;;;;6186161;23;45255;-73
2022/11/28 13:16:02;;;;;;;2.50;1.75;;;17.50;76.10;;;;;;6186403;23;45268;-73
2022/11/28 13:18:39;;;;;;;2.75;1.50;;;17.50;76.10;;;;;;6186420;23;45143;-73
2022/11/28 13:21:17;;;;;;;2.08;1.50;;;17.50;76.10;;;;;;6186273;23;45218;-73
2022/11/28 13:23:51;;;;;;;2.33;1.58;;;17.50;76.10;;;;;;6186260;23;45079;-73
2022/11/28 13:26:33;;;;;;;2.47;1.52;;;17.50;76.10;;;;;;6186382;23;45409;-73
2022/11/28 13:29:12;;;;;;;2.58;1.73;;;17.50;76.10;;;;;;6186621;23;45214;-73
2022/11/28 13:31:42;;;;;;;3.45;1.73;;;17.50;76.10;;;;;;6186255;23;45160;-73
2022/11/28 13:34:14;;;;;;;1.50;1.20;;;17.50;76.30;;;;;;6186115;23;45887;-73
2022/11/28 13:36:48;;;;;;;1.52;1.30;;;17.50;76.20;;;;;;6186211;23;45314;-73
2022/11/28 13:39:20;;;;;;;2.58;1.42;;;17.50;76.20;;;;;;6186481;23;45045;-73
2022/11/28 13:41:53;;;;;;;1.90;1.50;;;17.50;76.20;;;;;;6186092;23;47959;-73
2022/11/28 13:44:30;;;;;;;2.33;1.83;;;17.50;76.30;;;;;;6186048;23;45150;-73
2022/11/28 13:46:57;;;;;;;2.30;1.90;;;17.50;76.40;;;;;;6186718;23;45161;-73
2022/11/28 13:49:26;;;;;;;1.90;1.48;;;17.60;76.60;;;;;;6187363;23;45417;-73
2022/11/28 13:52:28;;;;;;;2.67;1.88;;;17.60;76.30;;;;;;6187132;23;46286;-73
2022/11/28 13:54:55;;;;;;;2.17;1.60;;;17.60;76.40;;;;;;6187197;23;45162;-73
2022/11/28 13:58:13;;;;;;;1.80;1.55;;;17.60;76.40;;;;;;6187476;23;45193;-74
2022/11/28 14:00:42;;;;;;;2.65;1.77;;;17.60;76.40;;;;;;6187569;23;45324;-73
2022/11/28 14:03:18;;;;;;;3.28;1.60;;;17.60;76.50;;;;;;6187164;23;46545;-73
2022/11/28 14:05:46;;;;;;;2.15;1.67;;;17.60;76.50;;;;;;6187283;23;45595;-73
2022/11/28 14:08:28;;;;;;;1.90;1.50;;;17.60;76.50;;;;;;6187016;23;45209;-73
2022/11/28 14:11:08;;;;;;;2.30;1.45;;;17.60;76.50;;;;;;6186895;23;45175;-73
2022/11/28 14:13:47;;;;;;;2.40;1.63;;;17.60;76.40;;;;;;6186915;23;46804;-73
2022/11/28 14:16:27;;;;;;;2.85;1.60;;;17.60;76.40;;;;;;6187459;23;45138;-73
2022/11/28 14:19:05;;;;;;;2.97;1.55;;;17.60;76.40;;;;;;6187211;23;45255;-73
2022/11/28 14:21:44;;;;;;;3.10;1.63;;;17.60;76.60;;;;;;6187373;23;45396;-73
2022/11/28 14:24:19;;;;;;;2.88;1.90;;;17.60;76.60;;;;;;6186935;23;45216;-73
2022/11/28 14:26:47;;;;;;;1.95;1.48;;;17.50;76.60;;;;;;6187126;23;45208;-73
2022/11/28 14:29:22;;;;;;;2.22;1.42;;;17.60;76.70;;;;;;6187373;23;45343;-73
2022/11/28 14:31:53;;;;;;;2.83;1.92;;;17.50;76.70;;;;;;6186773;23;45244;-73
2022/11/28 14:34:38;;;;;;;1.98;1.75;;;17.60;76.70;;;;;;6187105;23;47415;-73
2022/11/28 14:37:56;;;;;;;2.28;1.65;;;17.50;76.80;;;;;;6186094;23;45194;-73
2022/11/28 14:41:07;;;;;;;1.95;1.30;;;17.60;76.90;;;;;;6186601;23;45259;-73
2022/11/28 14:43:36;;;;;;;2.97;1.55;;;17.60;77.10;;;;;;6186954;23;45413;-73
2022/11/28 14:46:23;;;;;;;2.70;1.52;;;17.50;77.10;;;;;;6186576;23;45269;-73
2022/11/28 14:49:22;;;;;;;2.50;1.63;;;17.60;77.30;;;;;;6185452;23;45491;-73
2022/11/28 14:52:19;;;;;;;2.40;1.70;;;17.60;77.30;;;;;;6186614;23;45245;-73
2022/11/28 14:54:46;;;;;;;1.52;1.40;;;17.50;77.10;;;;;;6186593;23;45145;-73
2022/11/28 14:57:17;;;;;;;2.22;1.70;;;17.50;77.10;;;;;;6186224;23;47771;-72
2022/11/28 14:59:45;;;;;;;3.00;1.50;;;17.60;77.10;;;;;;6185340;23;45260;-73
2022/11/28 15:02:51;;;;;;;2.45;1.60;;;17.50;77.20;;;;;;6185926;23;45157;-73
2022/11/28 15:05:47;;;;;;;3.08;1.80;;;17.50;77.10;;;;;;6186324;23;45420;-73
2022/11/28 15:08:36;;;;;;;2.25;1.55;;;17.60;77.40;;;;;;6172526;23;46847;-73
2022/11/28 15:11:20;;;;;;;2.53;1.80;;;17.50;77.30;;;;;;6186524;22;45177;-73
2022/11/28 15:14:08;;;;;;;2.50;1.52;;;17.50;77.30;;;;;;6186544;23;45413;-72
2022/11/28 15:16:38;;;;;;;2.10;1.55;;;17.50;77.30;;;;;;6186493;23;45486;-73
2022/11/28 15:19:12;;;;;;;2.10;1.38;;;17.50;77.50;;;;;;6186452;23;45407;-73
2022/11/28 15:21:47;;;;;;;2.05;1.52;;;17.50;77.60;;;;;;6186578;23;45284;-73
2022/11/28 15:24:17;;;;;;;2.72;1.73;;;17.50;77.50;;;;;;6186779;23;45440;-73
2022/11/28 15:26:44;;;;;;;2.13;1.50;;;17.50;77.60;;;;;;6186234;23;45241;-74
2022/11/28 15:29:22;;;;;;;2.15;1.63;;;17.50;77.60;;;;;;6186155;23;47327;-73
2022/11/28 15:31:51;;;;;;;2.22;1.50;;;17.50;77.60;;;;;;6185568;23;45264;-74
2022/11/28 15:34:25;;;;;;;2.67;1.55;;;17.50;77.50;;;;;;6185782;23;45229;-73
2022/11/28 15:36:55;;;;;;;2.67;1.50;;;17.50;77.60;;;;;;6186417;23;45347;-72
2022/11/28 15:39:30;;;;;;;2.10;1.52;;;17.50;77.50;;;;;;6185408;23;46523;-73
2022/11/28 15:42:00;;;;;;;3.10;1.60;;;17.50;77.60;;;;;;6185975;23;45879;-73